Time;durP1;ratioP1;P1;durP2;ratioP2;P2;SDS_P1;SDS_P2;PMS_P1;PMS_P2;Temp;Humidity;BMP_temperature;BMP_pressure;BME280_temperature;BME280_humidity;BME280_pressure;Samples;Min_cycle;Max_cycle;Signal;HPM_P1;HPM_P2
2021/10/01 00:01:14;;;;;;;21.70;10.90;;;;;;;6.95;64.24;102241.37;1737643;79;21634;-56
2021/10/01 00:03:40;;;;;;;23.25;11.90;;;;;;;6.85;64.45;102235.59;1757499;80;21018;-56
2021/10/01 00:06:07;;;;;;;17.37;11.15;;;;;;;6.77;64.72;102236.30;1699145;83;21051;-56
2021/10/01 00:08:34;;;;;;;18.10;10.50;;;;;;;6.76;64.83;102237.66;1743089;80;22240;-55
2021/10/01 00:11:01;;;;;;;19.02;10.55;;;;;;;6.80;64.84;102229.66;1739973;80;21163;-55
2021/10/01 00:13:30;;;;;;;15.50;9.83;;;;;;;6.84;64.72;102231.28;1722766;81;21071;-55
2021/10/01 00:15:58;;;;;;;16.42;10.40;;;;;;;6.86;64.74;102224.69;1765979;80;21598;-56
2021/10/01 00:18:25;;;;;;;17.48;11.10;;;;;;;6.84;64.82;102223.44;1768603;79;21012;-56
2021/10/01 00:20:51;;;;;;;21.07;12.07;;;;;;;6.81;64.83;102219.61;1770772;80;21472;-56
2021/10/01 00:23:19;;;;;;;19.32;13.43;;;;;;;6.78;64.91;102217.56;1771063;79;21039;-56
2021/10/01 00:25:45;;;;;;;18.30;11.93;;;;;;;6.75;64.97;102213.73;1766327;80;21054;-56
2021/10/01 00:29:23;;;;;;;20.55;12.55;;;;;;;6.74;64.91;102212.89;1797719;78;23285;-56
2021/10/01 00:31:49;;;;;;;20.20;12.93;;;;;;;6.69;65.24;102214.78;1778670;80;21052;-57
2021/10/01 00:34:16;;;;;;;17.17;11.68;;;;;;;6.65;65.24;102214.03;1777805;78;21997;-56
2021/10/01 00:36:42;;;;;;;20.90;12.58;;;;;;;6.61;65.33;102211.60;1771895;80;21023;-56
2021/10/01 00:39:08;;;;;;;23.47;13.83;;;;;;;6.58;65.33;102215.63;1776706;78;22022;-57
2021/10/01 00:41:35;;;;;;;24.70;12.82;;;;;;;6.55;65.57;102213.95;1780503;78;21124;-56
2021/10/01 00:44:01;;;;;;;20.23;13.05;;;;;;;6.57;65.62;102213.91;1769197;80;21038;-56
2021/10/01 00:46:28;;;;;;;21.87;12.65;;;;;;;6.61;65.67;102212.45;1780753;78;21959;-57
2021/10/01 00:48:55;;;;;;;19.30;12.28;;;;;;;6.64;65.74;102213.66;1743462;80;21051;-57
2021/10/01 00:51:25;;;;;;;21.07;12.78;;;;;;;6.70;65.80;102210.81;1718689;82;21042;-57
2021/10/01 00:53:53;;;;;;;24.32;13.68;;;;;;;6.75;65.69;102213.27;1720599;82;21086;-57
2021/10/01 00:56:20;;;;;;;20.50;14.25;;;;;;;6.76;65.50;102211.50;1716734;81;20995;-57
2021/10/01 00:58:46;;;;;;;23.40;13.55;;;;;;;6.73;65.40;102216.41;1694309;82;22273;-57
2021/10/01 01:01:13;;;;;;;20.50;13.03;;;;;;;6.70;65.20;102213.89;1722027;81;21027;-57
2021/10/01 01:03:57;;;;;;;21.17;13.32;;;;;;;6.64;65.09;102209.73;1713845;81;21082;-57
2021/10/01 01:06:43;;;;;;;17.98;12.35;;;;;;;6.58;65.00;102206.00;1721719;81;21077;-54
2021/10/01 01:09:27;;;;;;;19.12;11.50;;;;;;;6.52;64.89;102211.44;1725913;82;21080;-56
2021/10/01 01:12:10;;;;;;;18.10;11.70;;;;;;;6.45;64.81;102206.02;1694682;82;22270;-55
2021/10/01 01:14:43;;;;;;;18.87;12.15;;;;;;;6.37;64.76;102201.06;1687392;81;21377;-55
2021/10/01 01:17:29;;;;;;;19.57;13.58;;;;;;;6.29;64.74;102200.45;1719571;81;20999;-55
2021/10/01 01:20:21;;;;;;;19.57;13.48;;;;;;;6.21;64.78;102207.70;1725679;82;21067;-55
2021/10/01 01:23:25;;;;;;;20.95;13.10;;;;;;;6.13;64.92;102202.23;1693381;82;21062;-55
2021/10/01 01:26:30;;;;;;;21.45;13.45;;;;;;;6.13;64.95;102201.39;1691519;82;21110;-56
2021/10/01 01:29:18;;;;;;;23.38;14.83;;;;;;;6.21;64.94;102201.16;1700689;82;21064;-55
2021/10/01 01:32:01;;;;;;;20.05;13.95;;;;;;;6.23;65.19;102204.11;1689360;83;21148;-55
2021/10/01 01:34:37;;;;;;;22.62;15.05;;;;;;;6.23;65.47;102205.88;1735333;80;21101;-55
2021/10/01 01:37:08;;;;;;;21.52;14.63;;;;;;;6.20;65.61;102209.89;1711143;82;22081;-55
2021/10/01 01:39:36;;;;;;;28.98;15.25;;;;;;;6.19;65.72;102208.20;1726811;82;21805;-55
2021/10/01 01:42:03;;;;;;;24.57;15.28;;;;;;;6.17;65.68;102204.76;1736442;80;21086;-55
2021/10/01 01:44:31;;;;;;;22.15;14.98;;;;;;;6.11;65.76;102207.13;1739869;80;21537;-56
2021/10/01 01:46:59;;;;;;;23.83;14.40;;;;;;;6.08;65.92;102209.37;1743038;80;21106;-55
2021/10/01 01:49:26;;;;;;;21.60;15.08;;;;;;;6.05;66.03;102206.01;1739757;82;21113;-56
2021/10/01 01:51:52;;;;;;;22.90;14.43;;;;;;;6.00;66.08;102208.80;1710776;82;21587;-56
2021/10/01 01:54:18;;;;;;;25.70;14.47;;;;;;;5.95;66.03;102215.86;1740229;80;21082;-55
2021/10/01 01:56:46;;;;;;;20.02;13.10;;;;;;;5.91;66.15;102215.56;1703940;81;21599;-56
2021/10/01 01:59:13;;;;;;;18.92;12.95;;;;;;;5.92;66.19;102208.14;1729033;80;22230;-56
2021/10/01 02:01:41;;;;;;;22.48;12.82;;;;;;;5.99;66.49;102206.23;1710312;80;21014;-55
2021/10/01 02:04:14;;;;;;;23.90;14.20;;;;;;;6.04;66.48;102206.47;1716242;82;21271;-56
2021/10/01 02:06:42;;;;;;;21.68;13.72;;;;;;;6.07;66.45;102209.42;1741685;80;21041;-56
2021/10/01 02:09:12;;;;;;;21.82;12.53;;;;;;;6.03;66.94;102210.44;1741799;80;21549;-56
2021/10/01 02:11:41;;;;;;;27.95;14.75;;;;;;;5.99;67.46;102210.14;1737504;80;21007;-56
2021/10/01 02:14:08;;;;;;;33.75;14.53;;;;;;;5.97;67.78;102218.45;1675703;80;21071;-56
2021/10/01 02:16:36;;;;;;;24.45;13.22;;;;;;;5.93;67.76;102216.37;1708849;82;21062;-55
2021/10/01 02:19:02;;;;;;;37.53;14.95;;;;;;;5.86;68.02;102212.24;1726403;80;21149;-56
2021/10/01 02:21:29;;;;;;;32.35;14.55;;;;;;;5.85;68.38;102221.84;1738471;80;21039;-56
2021/10/01 02:23:56;;;;;;;33.42;14.03;;;;;;;5.82;68.34;102217.17;1689531;82;21070;-55
2021/10/01 02:26:40;;;;;;;23.10;13.68;;;;;;;5.76;68.42;102221.66;1703678;81;21038;-55
2021/10/01 02:29:28;;;;;;;19.27;13.78;;;;;;;5.77;68.65;102219.92;1751715;79;22444;-56
2021/10/01 02:32:04;;;;;;;19.40;11.90;;;;;;;5.88;68.74;102222.19;1742414;80;21090;-55
2021/10/01 02:34:39;;;;;;;21.07;14.07;;;;;;;5.98;68.72;102212.34;1727840;81;21079;-55
2021/10/01 02:37:08;;;;;;;23.07;14.00;;;;;;;6.06;68.62;102221.64;1768458;79;21460;-56
2021/10/01 02:39:39;;;;;;;19.95;13.30;;;;;;;6.14;68.54;102221.41;1755615;79;21047;-56
2021/10/01 02:42:06;;;;;;;22.35;13.50;;;;;;;6.19;68.54;102223.89;1715542;80;21790;-56
2021/10/01 02:44:35;;;;;;;19.82;14.10;;;;;;;6.19;68.35;102219.50;1714353;81;21079;-56
2021/10/01 02:47:03;;;;;;;20.57;13.98;;;;;;;6.20;68.28;102222.96;1757604;79;21083;-56
2021/10/01 02:49:31;;;;;;;21.65;13.32;;;;;;;6.19;68.18;102218.66;1757167;79;21078;-57
2021/10/01 02:52:01;;;;;;;24.87;13.83;;;;;;;6.19;68.00;102229.12;1762461;80;21105;-56
2021/10/01 02:54:32;;;;;;;33.95;15.45;;;;;;;6.16;67.90;102226.13;1731059;80;21105;-56
2021/10/01 02:57:09;;;;;;;22.55;14.07;;;;;;;6.15;67.77;102233.56;1759179;80;21055;-56
2021/10/01 02:59:39;;;;;;;19.77;14.47;;;;;;;6.14;67.69;102233.17;1759264;79;21024;-56
2021/10/01 03:02:08;;;;;;;22.02;13.18;;;;;;;6.14;67.56;102231.41;1740832;80;21075;-56
2021/10/01 03:04:36;;;;;;;25.32;13.48;;;;;;;6.17;67.34;102229.59;1756641;79;21003;-57
2021/10/01 03:07:04;;;;;;;19.82;13.08;;;;;;;6.21;67.46;102224.69;1755642;80;21144;-56
2021/10/01 03:09:31;;;;;;;23.85;14.07;;;;;;;6.22;67.49;102225.95;1764389;80;21098;-57
2021/10/01 03:11:59;;;;;;;19.73;13.68;;;;;;;6.22;67.56;102231.61;1741148;80;21003;-57
2021/10/01 03:14:26;;;;;;;22.10;14.40;;;;;;;6.20;67.59;102239.95;1743689;80;21022;-56
2021/10/01 03:16:53;;;;;;;23.50;14.20;;;;;;;6.14;67.66;102227.48;1738845;80;21016;-57
2021/10/01 03:19:22;;;;;;;22.55;14.70;;;;;;;6.15;67.90;102232.25;1762577;79;21244;-56
2021/10/01 03:21:52;;;;;;;21.52;14.33;;;;;;;6.13;67.93;102233.61;1763108;79;21472;-54
2021/10/01 03:24:20;;;;;;;21.82;13.98;;;;;;;6.11;68.05;102235.42;1739924;79;21130;-55
2021/10/01 03:26:47;;;;;;;22.70;13.90;;;;;;;6.09;68.18;102239.00;1710702;80;21016;-56
2021/10/01 03:29:14;;;;;;;23.60;14.38;;;;;;;6.12;68.32;102238.45;1759690;79;21099;-55
2021/10/01 03:31:41;;;;;;;20.82;12.90;;;;;;;6.20;68.19;102240.80;1750778;80;21755;-56
2021/10/01 03:34:07;;;;;;;20.97;14.00;;;;;;;6.27;68.17;102241.03;1753540;79;20996;-56
2021/10/01 03:36:35;;;;;;;19.67;14.10;;;;;;;6.30;68.13;102234.83;1739081;80;21078;-56
2021/10/01 03:39:02;;;;;;;20.27;13.70;;;;;;;6.27;68.12;102231.00;1757947;79;21114;-56
2021/10/01 03:41:28;;;;;;;20.48;13.48;;;;;;;6.23;68.25;102240.70;1757154;79;21734;-56
2021/10/01 03:43:56;;;;;;;18.57;13.08;;;;;;;6.16;68.27;102237.89;1758210;80;21666;-56
2021/10/01 03:46:23;;;;;;;24.55;14.28;;;;;;;6.12;68.40;102239.76;1756465;79;20996;-56
2021/10/01 03:48:49;;;;;;;24.25;14.40;;;;;;;6.11;68.54;102238.50;1757937;79;21050;-56
2021/10/01 03:51:17;;;;;;;20.68;14.40;;;;;;;6.08;68.65;102243.35;1752217;79;21059;-56
2021/10/01 03:53:44;;;;;;;21.60;13.85;;;;;;;6.11;68.61;102241.95;1752366;79;22592;-56
2021/10/01 03:56:17;;;;;;;20.40;13.80;;;;;;;6.16;68.46;102247.50;1730703;80;21160;-56
2021/10/01 03:58:46;;;;;;;18.45;12.68;;;;;;;6.20;68.62;102259.10;1756776;79;21023;-57
2021/10/01 04:01:13;;;;;;;19.82;13.03;;;;;;;6.26;68.63;102256.30;1753894;79;21012;-55
2021/10/01 04:03:39;;;;;;;21.65;14.05;;;;;;;6.29;68.76;102255.36;1757553;79;21477;-56
2021/10/01 04:06:06;;;;;;;21.05;13.48;;;;;;;6.28;68.92;102261.48;1754266;79;20990;-54
2021/10/01 04:08:33;;;;;;;28.50;15.13;;;;;;;6.29;69.04;102269.74;1759660;79;21513;-56
2021/10/01 04:11:01;;;;;;;20.68;14.55;;;;;;;6.28;69.06;102265.41;1736360;79;21055;-56
2021/10/01 04:13:27;;;;;;;27.80;14.07;;;;;;;6.26;68.95;102264.61;1756388;79;21481;-56
2021/10/01 04:15:54;;;;;;;21.62;13.22;;;;;;;6.23;69.11;102266.00;1754967;79;21094;-56
2021/10/01 04:18:22;;;;;;;25.97;14.00;;;;;;;6.21;69.22;102267.36;1762134;80;21043;-58
2021/10/01 04:20:49;;;;;;;19.80;12.60;;;;;;;6.19;69.03;102262.64;1763528;79;21540;-57
2021/10/01 04:23:16;;;;;;;22.32;12.65;;;;;;;6.24;68.91;102265.95;1756944;80;21087;-56
2021/10/01 04:25:50;;;;;;;19.62;13.32;;;;;;;6.27;68.95;102265.86;1723512;79;21548;-56
2021/10/01 04:28:20;;;;;;;19.70;13.30;;;;;;;6.29;68.55;102262.75;1762516;80;21351;-56
2021/10/01 04:30:50;;;;;;;28.12;14.05;;;;;;;6.31;69.09;102266.16;1759636;79;21036;-55
2021/10/01 04:33:20;;;;;;;23.18;13.98;;;;;;;6.31;69.38;102260.08;1730220;80;22032;-57
2021/10/01 04:35:45;;;;;;;22.62;13.98;;;;;;;6.29;69.10;102260.59;1760102;79;21581;-55
2021/10/01 04:38:13;;;;;;;28.80;13.75;;;;;;;6.24;69.21;102267.73;1759153;79;21059;-55
2021/10/01 04:40:39;;;;;;;22.17;13.60;;;;;;;6.19;69.15;102267.86;1761032;79;21087;-57
2021/10/01 04:43:06;;;;;;;31.70;14.10;;;;;;;6.13;69.20;102275.42;1752416;80;21050;-56
2021/10/01 04:45:34;;;;;;;20.30;12.18;;;;;;;6.05;69.07;102276.14;1739921;79;22317;-55
2021/10/01 04:48:05;;;;;;;18.92;12.47;;;;;;;6.02;69.13;102272.73;1761976;80;21122;-57
2021/10/01 04:50:33;;;;;;;17.52;12.37;;;;;;;6.03;68.86;102272.70;1721492;81;21669;-57
2021/10/01 04:53:00;;;;;;;17.82;11.88;;;;;;;6.05;68.92;102273.95;1760467;79;21000;-58
2021/10/01 04:55:27;;;;;;;18.75;12.28;;;;;;;6.04;69.04;102283.56;1736528;80;21564;-56
2021/10/01 04:57:54;;;;;;;25.68;13.32;;;;;;;6.01;69.28;102286.27;1757607;79;21111;-55
2021/10/01 05:00:25;;;;;;;27.30;13.25;;;;;;;5.95;69.27;102286.41;1687537;79;21042;-56
2021/10/01 05:03:02;;;;;;;18.60;12.37;;;;;;;5.94;69.60;102293.86;1659381;84;21133;-56
2021/10/01 05:05:31;;;;;;;22.93;13.60;;;;;;;5.95;69.83;102288.59;1758313;79;21633;-57
2021/10/01 05:08:05;;;;;;;19.90;12.37;;;;;;;5.99;69.85;102293.77;1748270;79;21035;-56
2021/10/01 05:10:50;;;;;;;33.02;14.00;;;;;;;5.99;69.88;102289.38;1729826;80;21973;-57
2021/10/01 05:13:35;;;;;;;22.98;14.93;;;;;;;5.98;69.86;102290.28;1755951;79;21565;-57
2021/10/01 05:16:20;;;;;;;19.75;13.32;;;;;;;6.00;69.55;102295.03;1736539;80;21587;-57
2021/10/01 05:18:53;;;;;;;19.00;12.45;;;;;;;6.10;69.43;102294.27;1753932;79;21067;-58
2021/10/01 05:21:30;;;;;;;21.77;12.40;;;;;;;6.18;69.46;102292.28;1736552;79;22134;-57
2021/10/01 05:23:58;;;;;;;23.20;12.35;;;;;;;6.31;69.60;102300.14;1764374;80;22659;-57
2021/10/01 05:26:25;;;;;;;20.43;13.30;;;;;;;6.43;69.53;102292.36;1757837;80;21038;-57
2021/10/01 05:28:53;;;;;;;20.65;13.72;;;;;;;6.51;69.57;102294.28;1758628;79;21541;-57
2021/10/01 05:31:20;;;;;;;21.15;13.62;;;;;;;6.60;69.56;102297.51;1757797;79;21148;-57
2021/10/01 05:33:47;;;;;;;21.50;13.62;;;;;;;6.67;69.42;102299.01;1744687;80;21117;-57
2021/10/01 05:36:13;;;;;;;24.60;13.00;;;;;;;6.67;69.15;102301.63;1756742;80;21471;-56
2021/10/01 05:38:40;;;;;;;17.57;13.13;;;;;;;6.66;69.24;102299.47;1759633;79;21109;-57
2021/10/01 05:41:06;;;;;;;18.45;13.15;;;;;;;6.70;69.35;102313.30;1763808;80;21078;-57
2021/10/01 05:43:34;;;;;;;19.32;12.75;;;;;;;6.77;69.20;102306.95;1753484;79;21003;-57
2021/10/01 05:46:01;;;;;;;20.68;12.68;;;;;;;6.90;68.86;102302.64;1762047;79;21101;-58
2021/10/01 05:48:31;;;;;;;22.05;12.93;;;;;;;7.00;68.76;102304.03;1764396;79;22011;-58
2021/10/01 05:51:16;;;;;;;21.00;12.33;;;;;;;7.12;68.79;102307.98;1761135;79;21318;-58
2021/10/01 05:54:22;;;;;;;19.48;12.28;;;;;;;7.21;68.86;102306.34;1739670;80;21070;-58
2021/10/01 05:56:54;;;;;;;23.10;15.15;;;;;;;7.24;68.87;102311.01;1661313;85;21119;-57
2021/10/01 05:59:23;;;;;;;20.37;14.47;;;;;;;7.30;68.96;102313.05;1654909;84;21137;-55
2021/10/01 06:01:51;;;;;;;22.02;14.23;;;;;;;7.35;68.98;102318.50;1699686;79;21905;-55
2021/10/01 06:04:17;;;;;;;20.88;13.00;;;;;;;7.39;68.85;102319.25;1706135;81;20980;-57
2021/10/01 06:06:43;;;;;;;22.15;13.38;;;;;;;7.45;68.82;102316.42;1760591;79;20952;-57
2021/10/01 06:09:11;;;;;;;19.23;13.08;;;;;;;7.51;68.72;102317.48;1744245;79;21615;-57
2021/10/01 06:11:39;;;;;;;20.02;12.78;;;;;;;7.62;68.68;102320.58;1760662;80;21482;-56
2021/10/01 06:14:07;;;;;;;21.12;12.25;;;;;;;7.81;68.73;102316.81;1762059;79;21049;-57
2021/10/01 06:16:34;;;;;;;28.07;12.55;;;;;;;7.97;68.22;102322.34;1756011;79;20944;-57
2021/10/01 06:19:03;;;;;;;23.22;13.43;;;;;;;8.07;68.10;102323.28;1757340;79;21467;-56
2021/10/01 06:21:31;;;;;;;19.92;13.28;;;;;;;8.10;68.11;102327.11;1762626;79;21587;-56
2021/10/01 06:23:57;;;;;;;21.05;14.28;;;;;;;8.13;68.06;102325.22;1737363;80;21070;-57
2021/10/01 06:26:24;;;;;;;20.82;13.60;;;;;;;8.13;67.80;102325.22;1758728;80;21193;-57
2021/10/01 06:28:52;;;;;;;18.77;12.43;;;;;;;8.13;67.71;102326.53;1758060;79;21035;-57
2021/10/01 06:31:18;;;;;;;17.77;11.80;;;;;;;8.12;67.69;102326.58;1731467;80;21615;-57
2021/10/01 06:33:44;;;;;;;20.70;13.45;;;;;;;8.11;67.99;102324.89;1752425;79;21087;-57
2021/10/01 06:36:14;;;;;;;20.37;13.10;;;;;;;8.13;68.22;102325.69;1698996;82;21053;-57
2021/10/01 06:38:39;;;;;;;19.32;13.05;;;;;;;8.19;68.21;102324.14;1760693;79;21098;-58
2021/10/01 06:41:06;;;;;;;16.27;11.70;;;;;;;8.29;68.16;102324.17;1759635;79;21071;-57
2021/10/01 06:43:33;;;;;;;15.90;12.33;;;;;;;8.41;68.29;102325.92;1734572;79;21026;-57
2021/10/01 06:46:02;;;;;;;21.27;13.60;;;;;;;8.54;68.30;102326.70;1760755;79;21108;-58
2021/10/01 07:35:08;;;;;;;19.07;11.25;;;;;;;10.19;68.53;102323.44;1754124;79;21107;-57
2021/10/01 08:20:57;;;;;;;16.52;9.08;;;;;;;12.68;59.51;102300.75;1737604;80;21000;-58
2021/10/01 08:23:23;;;;;;;15.70;8.03;;;;;;;12.73;59.56;102297.85;1759829;80;21071;-57
2021/10/01 08:25:50;;;;;;;15.68;8.55;;;;;;;12.80;59.05;102302.66;1756622;79;21521;-57
2021/10/01 08:28:16;;;;;;;16.55;8.13;;;;;;;12.89;58.58;102301.75;1753589;79;21651;-57
2021/10/01 08:30:53;;;;;;;21.23;8.23;;;;;;;12.96;57.83;102297.79;1708810;80;21591;-58
2021/10/01 08:33:21;;;;;;;15.10;7.67;;;;;;;13.01;57.53;102290.44;1728870;81;21066;-58
2021/10/01 08:35:47;;;;;;;12.05;7.30;;;;;;;13.08;57.20;102290.47;1695675;82;21093;-58
2021/10/01 08:38:13;;;;;;;13.43;6.83;;;;;;;13.16;56.77;102294.83;1728181;80;21230;-58
2021/10/01 08:40:40;;;;;;;9.33;6.42;;;;;;;13.26;56.75;102294.25;1699528;82;21548;-58
2021/10/01 08:43:06;;;;;;;10.50;6.40;;;;;;;13.34;55.87;102294.19;1726242;80;21393;-58
2021/10/01 08:45:33;;;;;;;8.53;5.00;;;;;;;13.41;55.15;102288.05;1718861;81;21038;-58
2021/10/01 08:47:59;;;;;;;13.05;5.53;;;;;;;13.50;54.60;102287.49;1725027;80;21116;-58
2021/10/01 08:50:26;;;;;;;14.20;5.70;;;;;;;13.57;54.14;102285.31;1677086;82;21107;-58
2021/10/01 08:52:53;;;;;;;8.88;5.22;;;;;;;13.66;53.84;102284.72;1644054;84;21015;-57
2021/10/01 08:55:21;;;;;;;8.38;5.12;;;;;;;13.76;52.96;102286.32;1645780;84;21253;-59
2021/10/01 08:57:47;;;;;;;7.78;4.37;;;;;;;13.85;52.54;102291.05;1661028;84;21572;-58
2021/10/01 09:00:18;;;;;;;8.73;4.15;;;;;;;13.93;51.75;102286.09;1673423;84;21594;-57
2021/10/01 09:02:44;;;;;;;8.15;4.28;;;;;;;14.03;51.63;102286.84;1721403;82;23295;-57
2021/10/01 09:05:11;;;;;;;10.00;5.35;;;;;;;14.09;51.20;102286.45;1728373;81;22282;-59
2021/10/01 09:07:38;;;;;;;7.33;3.98;;;;;;;14.17;51.18;102284.61;1731975;80;21061;-58
2021/10/01 09:10:10;;;;;;;8.23;3.67;;;;;;;14.25;50.65;102283.16;1732785;80;21099;-58
2021/10/01 09:12:37;;;;;;;10.08;4.30;;;;;;;14.31;49.79;102282.77;1720625;81;21056;-58
2021/10/01 09:15:05;;;;;;;8.70;4.05;;;;;;;14.40;49.20;102281.78;1703580;81;22009;-57
2021/10/01 09:17:33;;;;;;;6.47;3.05;;;;;;;14.48;48.99;102278.16;1717678;80;21027;-58
2021/10/01 09:20:00;;;;;;;8.68;4.00;;;;;;;14.54;47.65;102276.89;1726547;81;20996;-58
2021/10/01 09:22:31;;;;;;;6.97;3.77;;;;;;;14.58;47.02;102273.94;1728473;80;21044;-58
2021/10/01 09:25:17;;;;;;;7.42;3.47;;;;;;;14.64;47.24;102279.33;1720148;81;21043;-58
2021/10/01 09:27:44;;;;;;;9.78;3.60;;;;;;;14.70;47.31;102273.63;1709082;80;21578;-59
2021/10/01 09:30:13;;;;;;;7.35;3.42;;;;;;;14.79;46.00;102270.82;1728307;80;21162;-59
2021/10/01 09:32:40;;;;;;;8.00;3.90;;;;;;;14.87;45.87;102277.78;1762783;79;21643;-58
2021/10/01 09:35:13;;;;;;;8.43;3.75;;;;;;;14.94;45.71;102267.60;1759017;79;21042;-57
2021/10/01 09:37:40;;;;;;;6.05;2.72;;;;;;;14.99;45.93;102271.63;1742173;80;21046;-58
2021/10/01 09:40:08;;;;;;;6.60;3.30;;;;;;;15.05;44.33;102271.21;1758366;79;21092;-58
2021/10/01 09:42:44;;;;;;;6.22;2.75;;;;;;;15.12;43.97;102269.47;1751397;79;20956;-59
2021/10/01 09:45:11;;;;;;;6.65;2.83;;;;;;;15.17;43.25;102267.34;1760420;79;21465;-59
2021/10/01 09:47:46;;;;;;;4.72;2.62;;;;;;;15.22;43.07;102263.90;1757665;79;21829;-61
2021/10/01 09:50:23;;;;;;;5.33;2.55;;;;;;;15.27;42.98;102261.77;1744100;80;20995;-59
2021/10/01 09:52:52;;;;;;;5.00;2.12;;;;;;;15.35;42.64;102249.31;1725531;82;21796;-59
2021/10/01 09:55:36;;;;;;;6.12;2.62;;;;;;;15.44;42.43;102254.43;1757116;79;21445;-58
2021/10/01 09:58:10;;;;;;;5.00;2.67;;;;;;;15.53;41.39;102255.09;1735098;80;21398;-58
2021/10/01 10:00:46;;;;;;;5.17;2.45;;;;;;;15.62;40.70;102249.14;1752692;79;21461;-58
2021/10/01 10:03:28;;;;;;;5.65;2.50;;;;;;;15.67;40.14;102252.31;1754159;79;21123;-57
2021/10/01 10:06:06;;;;;;;5.55;2.33;;;;;;;15.74;40.09;102248.24;1763918;80;21078;-58
2021/10/01 10:08:37;;;;;;;4.47;2.00;;;;;;;15.83;39.46;102244.59;1760161;79;21058;-58
2021/10/01 10:11:14;;;;;;;6.22;2.90;;;;;;;15.92;39.61;102243.91;1762381;79;21038;-59
2021/10/01 10:13:52;;;;;;;6.62;2.42;;;;;;;16.02;39.48;102238.77;1756869;79;21054;-59
2021/10/01 10:16:22;;;;;;;5.70;2.42;;;;;;;16.09;37.98;102236.05;1705878;81;21118;-59
2021/10/01 10:18:52;;;;;;;5.55;2.80;;;;;;;16.14;38.70;102240.54;1762561;79;21094;-59
2021/10/01 10:21:20;;;;;;;5.50;2.60;;;;;;;16.18;39.56;102241.16;1753156;79;21106;-57
2021/10/01 10:23:47;;;;;;;5.28;2.60;;;;;;;16.23;38.98;102239.84;1755436;79;21087;-59
2021/10/01 10:26:15;;;;;;;5.95;2.77;;;;;;;16.30;39.44;102234.91;1752865;79;21054;-58
2021/10/01 10:28:43;;;;;;;5.40;2.72;;;;;;;16.38;39.41;102231.70;1741447;79;21101;-58
2021/10/01 10:31:10;;;;;;;5.20;2.83;;;;;;;16.45;39.35;102230.26;1758617;79;23288;-59
2021/10/01 10:33:49;;;;;;;6.40;3.20;;;;;;;16.51;38.93;102231.13;1767356;79;21564;-59
2021/10/01 10:36:44;;;;;;;5.03;2.62;;;;;;;16.55;38.62;102228.59;1706335;82;21461;-58
2021/10/01 10:39:17;;;;;;;9.35;3.33;;;;;;;16.59;38.43;102222.56;1742498;80;21090;-58
2021/10/01 10:41:47;;;;;;;5.53;2.62;;;;;;;16.64;38.62;102221.72;1762865;79;21089;-59
2021/10/01 10:44:15;;;;;;;7.08;3.10;;;;;;;16.68;38.82;102224.53;1744674;80;21503;-59
2021/10/01 10:46:46;;;;;;;6.08;3.02;;;;;;;16.74;38.83;102216.55;1761691;79;21058;-59
2021/10/01 10:49:22;;;;;;;5.22;2.80;;;;;;;16.80;38.68;102211.61;1766166;79;21010;-57
2021/10/01 10:52:14;;;;;;;6.10;3.05;;;;;;;16.88;37.48;102214.55;1768497;79;21469;-58
2021/10/01 10:54:46;;;;;;;5.62;3.02;;;;;;;16.95;38.05;102212.27;1769408;79;21004;-59
2021/10/01 10:57:26;;;;;;;6.42;3.37;;;;;;;16.99;37.16;102211.04;1766991;79;21543;-59
2021/10/01 11:00:02;;;;;;;5.85;3.10;;;;;;;17.02;36.87;102208.64;1735411;80;20999;-59
2021/10/01 11:02:44;;;;;;;5.65;2.75;;;;;;;17.12;37.49;102205.61;1768157;79;20984;-59
2021/10/01 11:05:29;;;;;;;5.05;2.62;;;;;;;17.18;37.40;102203.81;1769298;80;21075;-59
2021/10/01 11:08:03;;;;;;;15.30;3.67;;;;;;;17.23;36.59;102198.10;1743053;79;21386;-58
2021/10/01 11:10:41;;;;;;;5.87;3.05;;;;;;;17.25;36.85;102192.20;1771017;80;21007;-59
2021/10/01 11:13:26;;;;;;;6.25;2.67;;;;;;;17.31;37.00;102185.03;1760952;79;21026;-59
2021/10/01 11:16:15;;;;;;;8.38;2.42;;;;;;;17.38;36.33;102181.40;1769052;79;21038;-60
2021/10/01 11:18:48;;;;;;;7.83;2.98;;;;;;;17.46;36.87;102177.64;1770045;80;20951;-58
2021/10/01 11:21:32;;;;;;;6.85;2.95;;;;;;;17.52;37.19;102181.64;1765637;79;21023;-58
2021/10/01 11:24:21;;;;;;;6.33;3.30;;;;;;;17.56;36.50;102178.58;1705379;82;21127;-57
2021/10/01 11:26:54;;;;;;;8.13;2.95;;;;;;;17.59;36.69;102175.67;1769381;79;21019;-57
2021/10/01 11:29:32;;;;;;;7.80;2.77;;;;;;;17.64;36.05;102172.14;1738579;80;21040;-58
2021/10/01 11:32:03;;;;;;;6.15;3.20;;;;;;;17.69;36.86;102174.44;1778666;79;21031;-58
2021/10/01 11:34:57;;;;;;;5.95;2.62;;;;;;;17.75;36.40;102163.30;1767833;79;21409;-59
2021/10/01 11:37:36;;;;;;;5.70;2.70;;;;;;;17.83;36.60;102163.48;1768336;79;21423;-58
2021/10/01 11:40:27;;;;;;;8.70;3.12;;;;;;;17.89;36.45;102160.84;1761483;79;21003;-59
2021/10/01 11:42:56;;;;;;;7.25;3.30;;;;;;;17.93;36.75;102156.94;1760675;79;20976;-61
2021/10/01 11:45:30;;;;;;;5.78;3.12;;;;;;;17.97;36.17;102159.73;1767659;79;21039;-58
2021/10/01 11:48:01;;;;;;;6.30;3.20;;;;;;;18.05;35.68;102156.41;1766729;79;21039;-58
2021/10/01 11:50:49;;;;;;;5.25;2.70;;;;;;;18.10;36.10;102151.53;1753225;79;21065;-58
2021/10/01 11:53:22;;;;;;;7.10;3.15;;;;;;;18.18;36.21;102146.91;1741889;79;21031;-59
2021/10/01 11:55:55;;;;;;;6.75;3.20;;;;;;;18.26;35.35;102147.10;1732301;80;21007;-59
2021/10/01 11:58:24;;;;;;;5.17;3.15;;;;;;;18.33;36.07;102145.59;1742233;80;21072;-61
2021/10/01 12:00:51;;;;;;;6.20;3.37;;;;;;;18.44;36.64;102140.70;1736659;80;21105;-60
2021/10/01 12:03:19;;;;;;;5.62;3.10;;;;;;;18.52;35.48;102139.52;1763642;79;21134;-58
2021/10/01 12:05:50;;;;;;;5.15;2.90;;;;;;;18.60;35.72;102137.54;1763445;79;21437;-59
2021/10/01 12:08:21;;;;;;;5.47;2.98;;;;;;;18.66;35.30;102131.69;1763909;80;21087;-59
2021/10/01 12:10:54;;;;;;;5.97;3.22;;;;;;;18.74;35.61;102136.33;1764039;79;21027;-58
2021/10/01 12:13:26;;;;;;;5.90;3.33;;;;;;;18.87;35.43;102134.81;1761959;79;21619;-58
2021/10/01 12:16:05;;;;;;;7.08;3.58;;;;;;;18.96;35.28;102131.82;1760852;79;21164;-59
2021/10/01 12:18:36;;;;;;;7.28;4.17;;;;;;;19.05;35.75;102132.36;1761743;79;20952;-58
2021/10/01 12:21:13;;;;;;;6.47;3.83;;;;;;;19.13;35.09;102133.83;1763445;79;21555;-59
2021/10/01 12:23:46;;;;;;;7.22;4.15;;;;;;;19.18;35.38;102128.09;1737906;80;21085;-59
2021/10/01 12:26:39;;;;;;;6.58;3.72;;;;;;;19.22;34.88;102124.19;1765678;79;20986;-59
2021/10/01 12:29:23;;;;;;;7.35;3.77;;;;;;;19.25;35.16;102123.42;1764934;79;21697;-59
2021/10/01 12:31:58;;;;;;;6.70;3.37;;;;;;;19.32;34.95;102119.70;1763128;79;21077;-60
2021/10/01 12:34:31;;;;;;;8.38;4.28;;;;;;;19.40;35.03;102121.67;1751124;79;21463;-58
2021/10/01 12:37:04;;;;;;;5.80;3.30;;;;;;;19.46;35.64;102124.63;1765580;79;21031;-59
2021/10/01 12:39:34;;;;;;;5.90;3.00;;;;;;;19.53;35.08;102124.91;1746478;80;21022;-59
2021/10/01 12:42:06;;;;;;;5.87;3.35;;;;;;;19.62;35.01;102120.59;1745407;80;21156;-59
2021/10/01 12:47:13;;;;;;;6.92;3.08;;;;;;;19.86;34.87;102113.51;1779523;78;22388;-58
2021/10/01 12:49:40;;;;;;;7.22;3.33;;;;;;;19.90;34.79;102108.72;1728998;81;22501;-59
2021/10/01 12:52:13;;;;;;;5.95;3.25;;;;;;;20.03;33.37;102114.61;1741394;80;21110;-59
2021/10/01 12:54:47;;;;;;;4.87;2.37;;;;;;;20.88;32.42;102105.27;1744952;80;21081;-60
2021/10/01 12:57:25;;;;;;;9.10;2.75;;;;;;;22.18;30.80;102102.69;1742747;80;21109;-59
2021/10/01 13:00:04;;;;;;;5.58;2.87;;;;;;;23.74;29.35;102099.22;1745034;80;20990;-60
2021/10/01 13:02:54;;;;;;;6.25;3.40;;;;;;;25.35;27.24;102095.53;1754228;80;21147;-58
2021/10/01 13:05:29;;;;;;;5.95;2.95;;;;;;;26.84;25.58;102093.07;1685771;81;22022;-58
2021/10/01 13:08:08;;;;;;;6.12;3.33;;;;;;;28.27;24.28;102088.56;1707965;81;20930;-57
2021/10/01 13:10:50;;;;;;;7.00;3.62;;;;;;;29.44;22.94;102081.30;1691458;81;20986;-58
2021/10/01 13:13:22;;;;;;;6.78;3.00;;;;;;;30.52;22.13;102078.77;1712632;81;21089;-58